Time;durP1;ratioP1;P1;durP2;ratioP2;P2;SDS_P1;SDS_P2;PMS_P1;PMS_P2;Temp;Humidity;BMP_temperature;BMP_pressure;BME280_temperature;BME280_humidity;BME280_pressure;Samples;Min_cycle;Max_cycle;Signal;HPM_P1;HPM_P2
2023/06/08 00:02:17;;;;;;;5.83;5.30;;;;;;;19.68;nan;99218.63;4981457;28;20765;-79
2023/06/08 00:04:44;;;;;;;5.68;5.18;;;;;;;19.60;nan;99216.75;4979872;28;20423;-79
2023/06/08 00:07:14;;;;;;;5.67;5.07;;;;;;;19.60;nan;99216.75;4978098;28;20226;-79
2023/06/08 00:09:43;;;;;;;5.67;5.10;;;;;;;19.61;nan;99213.09;4961640;28;20584;-79
2023/06/08 00:12:10;;;;;;;6.23;5.50;;;;;;;19.64;nan;99210.09;4979002;28;20485;-79
2023/06/08 00:14:36;;;;;;;6.40;5.80;;;;;;;19.65;nan;99205.59;4979999;28;20495;-79
2023/06/08 00:17:03;;;;;;;6.67;4.93;;;;;;;19.66;nan;99208.16;4979404;28;20472;-79
2023/06/08 00:19:33;;;;;;;6.40;5.23;;;;;;;19.70;nan;99203.31;4979674;28;20975;-79
2023/06/08 00:21:59;;;;;;;5.90;5.40;;;;;;;19.74;nan;99195.81;4979779;28;20478;-79
2023/06/08 00:24:27;;;;;;;7.20;5.57;;;;;;;19.76;nan;99205.31;4980847;28;20466;-79
2023/06/08 00:26:53;;;;;;;5.50;5.00;;;;;;;19.79;nan;99207.63;4980350;28;20490;-79
2023/06/08 00:29:20;;;;;;;7.50;6.70;;;;;;;19.77;nan;99208.81;4979877;28;21216;-79
2023/06/08 00:31:45;;;;;;;5.77;5.27;;;;;;;19.64;nan;99207.44;4962677;28;20239;-79
2023/06/08 00:34:11;;;;;;;5.70;5.20;;;;;;;19.44;nan;99206.06;4958326;28;20511;-79
2023/06/08 00:36:37;;;;;;;6.20;5.70;;;;;;;19.32;nan;99207.41;4977329;28;20466;-79
2023/06/08 00:39:04;;;;;;;6.60;5.80;;;;;;;19.18;nan;99208.88;4978917;28;20210;-79
2023/06/08 00:41:30;;;;;;;6.10;5.53;;;;;;;19.08;nan;99213.50;4979872;28;20461;-79
2023/06/08 00:43:55;;;;;;;6.17;5.57;;;;;;;19.02;nan;99207.00;4978290;28;20503;-79
2023/06/08 00:46:22;;;;;;;7.60;5.40;;;;;;;18.97;nan;99207.47;4979370;28;20228;-79
2023/06/08 00:48:48;;;;;;;6.47;5.83;;;;;;;18.87;nan;99217.41;4977893;28;20780;-79
2023/06/08 00:51:13;;;;;;;5.20;4.70;;;;;;;18.76;nan;99217.69;4980158;28;20498;-79
2023/06/08 00:53:39;;;;;;;7.40;6.70;;;;;;;18.68;nan;99213.13;4981123;28;20697;-79
2023/06/08 00:56:06;;;;;;;6.03;5.53;;;;;;;18.67;nan;99218.63;4978391;28;20317;-79
2023/06/08 00:58:33;;;;;;;11.97;5.77;;;;;;;18.62;nan;99211.13;4961637;28;20461;-79
2023/06/08 01:00:59;;;;;;;6.53;5.90;;;;;;;18.59;nan;99198.13;4962634;28;20534;-79
2023/06/08 01:03:38;;;;;;;7.10;6.43;;;;;;;18.57;nan;99205.44;4974087;28;20487;-79
2023/06/08 01:06:04;;;;;;;6.47;5.90;;;;;;;18.53;nan;99202.28;4976746;28;20335;-79
2023/06/08 01:08:52;;;;;;;6.70;5.40;;;;;;;18.55;nan;99194.97;4979007;28;20469;-79
2023/06/08 01:11:21;;;;;;;6.27;5.30;;;;;;;18.58;nan;99196.47;4978873;28;21603;-79
2023/06/08 01:14:02;;;;;;;5.80;5.30;;;;;;;18.62;nan;99194.34;4977373;28;20513;-79
2023/06/08 01:16:36;;;;;;;6.20;5.60;;;;;;;18.60;nan;99185.66;4959347;28;21138;-79
2023/06/08 01:19:10;;;;;;;6.30;5.70;;;;;;;18.61;nan;99198.81;5044072;23;20601;-84
2023/06/08 01:21:59;;;;;;;5.60;5.20;;;;;;;18.58;nan;99189.34;5013745;28;20469;-79
2023/06/08 01:24:30;;;;;;;6.03;5.43;;;;;;;18.52;nan;99200.63;5025579;28;20746;-79
2023/06/08 01:26:57;;;;;;;7.90;6.53;;;;;;;18.50;nan;99193.78;5028581;28;20466;-83
2023/06/08 01:29:25;;;;;;;7.13;6.37;;;;;;;18.41;nan;99190.22;5007301;28;20530;-79
2023/06/08 01:31:51;;;;;;;5.90;5.20;;;;;;;18.34;nan;99202.50;5006460;28;20480;-80
2023/06/08 01:34:17;;;;;;;8.20;6.10;;;;;;;18.27;nan;99196.97;5006146;28;20514;-83
2023/06/08 01:37:06;;;;;;;7.17;6.47;;;;;;;18.27;nan;99198.78;5009623;28;20569;-79
2023/06/08 01:43:22;;;;;;;4.83;4.43;;;;;;;18.29;nan;99195.00;5006358;28;20481;-83
2023/06/08 01:45:51;;;;;;;6.67;5.90;;;;;;;18.30;nan;99198.47;5005479;28;20652;-79
2023/06/08 01:48:19;;;;;;;8.97;6.03;;;;;;;18.24;nan;99197.28;5011020;28;20507;-79
2023/06/08 01:50:46;;;;;;;8.47;6.70;;;;;;;18.20;nan;99195.09;5010348;28;20992;-79
2023/06/08 01:53:12;;;;;;;7.73;6.10;;;;;;;18.16;nan;99194.56;5009029;28;20458;-81
2023/06/08 01:55:38;;;;;;;6.93;6.17;;;;;;;18.13;nan;99194.88;4990463;28;20455;-79
2023/06/08 01:58:04;;;;;;;5.93;5.43;;;;;;;18.05;nan;99197.50;5006028;28;20469;-81
2023/06/08 02:00:30;;;;;;;6.53;5.93;;;;;;;17.95;nan;99186.13;5002804;28;20579;-81
2023/06/08 02:02:56;;;;;;;7.60;6.10;;;;;;;17.85;nan;99186.22;5007191;28;20574;-79
2023/06/08 02:05:21;;;;;;;7.60;6.30;;;;;;;17.79;nan;99190.31;5007560;28;20483;-79
2023/06/08 02:07:46;;;;;;;7.10;6.50;;;;;;;17.79;nan;99187.66;5007329;28;20482;-79
2023/06/08 02:10:12;;;;;;;6.73;6.13;;;;;;;17.82;nan;99192.69;5007244;28;20208;-80
2023/06/08 02:12:38;;;;;;;6.77;6.17;;;;;;;17.85;nan;99189.72;5000053;28;20212;-80
2023/06/08 02:15:05;;;;;;;6.60;5.97;;;;;;;17.86;nan;99186.06;4988250;28;20470;-83
2023/06/08 02:17:33;;;;;;;6.63;6.10;;;;;;;17.85;nan;99184.41;5009019;28;20472;-83
2023/06/08 02:20:06;;;;;;;6.17;5.63;;;;;;;17.86;nan;99195.84;5012467;28;20474;-79
2023/06/08 02:22:33;;;;;;;8.23;5.90;;;;;;;17.82;nan;99198.00;4992541;28;20482;-79
2023/06/08 02:24:58;;;;;;;7.30;6.70;;;;;;;17.81;nan;99201.63;5011383;28;20566;-79
2023/06/08 02:27:24;;;;;;;6.87;6.17;;;;;;;17.81;nan;99206.94;5009721;28;20479;-79
2023/06/08 02:29:50;;;;;;;6.30;5.70;;;;;;;17.80;nan;99202.63;5011035;28;20265;-82
2023/06/08 02:32:16;;;;;;;6.50;5.90;;;;;;;17.75;nan;99202.22;5006271;28;20336;-79
2023/06/08 02:34:53;;;;;;;8.20;6.37;;;;;;;17.72;nan;99194.56;5010625;28;21216;-79
2023/06/08 02:37:19;;;;;;;7.03;6.43;;;;;;;17.69;nan;99193.03;5009311;28;20320;-82
2023/06/08 02:39:45;;;;;;;8.00;6.00;;;;;;;17.58;nan;99195.94;5004031;28;20541;-82
2023/06/08 02:42:12;;;;;;;10.90;6.73;;;;;;;17.45;nan;99192.81;5008357;28;20500;-79
2023/06/08 02:44:40;;;;;;;7.03;6.33;;;;;;;17.36;nan;99196.38;4991885;28;20469;-84
2023/06/08 02:47:06;;;;;;;7.30;6.60;;;;;;;17.32;nan;99205.63;4992126;28;20461;-81
2023/06/08 02:49:31;;;;;;;6.10;5.60;;;;;;;17.22;nan;99195.91;4991825;28;20600;-80
2023/06/08 02:51:56;;;;;;;6.50;5.90;;;;;;;17.18;nan;99199.84;5009386;28;20707;-81
2023/06/08 02:54:22;;;;;;;12.70;6.83;;;;;;;17.16;nan;99201.81;5009884;28;20480;-80
2023/06/08 02:56:48;;;;;;;8.27;7.00;;;;;;;17.19;nan;99208.66;5004531;28;20220;-80
2023/06/08 02:59:14;;;;;;;7.10;6.40;;;;;;;17.24;nan;99209.03;5007864;28;20275;-79
2023/06/08 03:01:53;;;;;;;6.83;6.23;;;;;;;17.25;nan;99205.38;4989213;28;20464;-79
2023/06/08 03:04:26;;;;;;;9.30;6.67;;;;;;;17.27;nan;99210.56;4991347;28;20209;-79
2023/06/08 03:06:57;;;;;;;6.87;6.20;;;;;;;17.25;nan;99200.09;4989590;28;20549;-82
2023/06/08 03:09:25;;;;;;;6.20;5.60;;;;;;;17.20;nan;99205.88;4991222;28;20983;-79
2023/06/08 03:11:52;;;;;;;8.47;7.57;;;;;;;17.15;nan;99202.00;4990607;28;20719;-81
2023/06/08 03:14:19;;;;;;;6.33;5.83;;;;;;;17.08;nan;99199.09;4991995;28;20469;-79
2023/06/08 03:16:45;;;;;;;7.13;6.50;;;;;;;16.97;nan;99197.47;5002593;28;20467;-82
2023/06/08 03:19:12;;;;;;;7.60;6.90;;;;;;;16.87;nan;99190.53;5003265;28;20234;-78
2023/06/08 03:21:41;;;;;;;6.32;5.82;;;;;;;16.82;nan;99193.63;5002320;28;21245;-82
2023/06/08 03:24:09;;;;;;;6.60;5.93;;;;;;;16.77;nan;99202.06;5004111;28;20219;-78
2023/06/08 03:26:37;;;;;;;7.37;6.40;;;;;;;16.68;nan;99205.53;5007412;28;21026;-78
2023/06/08 03:29:03;;;;;;;7.93;7.13;;;;;;;16.63;nan;99193.69;5002372;28;20473;-79
2023/06/08 03:31:29;;;;;;;7.97;6.70;;;;;;;16.64;nan;99203.34;5006245;28;20229;-79
2023/06/08 03:33:56;;;;;;;6.90;6.40;;;;;;;16.57;nan;99206.56;5005347;28;20211;-78
2023/06/08 03:36:33;;;;;;;8.05;7.35;;;;;;;16.57;nan;99205.72;5000934;28;21104;-78
2023/06/08 03:39:02;;;;;;;8.20;7.40;;;;;;;16.56;nan;99202.25;5007155;28;20236;-81
2023/06/08 03:41:29;;;;;;;6.07;5.50;;;;;;;16.63;nan;99210.44;5002635;28;20508;-81
2023/06/08 03:43:55;;;;;;;7.47;6.77;;;;;;;16.66;nan;99209.31;4988597;28;20548;-82
2023/06/08 03:46:24;;;;;;;6.33;5.73;;;;;;;16.68;nan;99210.84;5006875;28;20986;-81
2023/06/08 03:48:50;;;;;;;6.10;5.50;;;;;;;16.70;nan;99203.56;5006149;28;20977;-78
2023/06/08 03:51:18;;;;;;;7.27;6.57;;;;;;;16.71;nan;99209.72;5009819;28;20234;-79
2023/06/08 03:53:44;;;;;;;7.60;6.90;;;;;;;16.68;nan;99207.34;4992144;28;20208;-79
2023/06/08 03:56:10;;;;;;;6.90;6.03;;;;;;;16.69;nan;99211.66;5008214;28;20814;-79
2023/06/08 03:58:41;;;;;;;7.78;7.07;;;;;;;16.67;nan;99214.47;5004047;28;20826;-82
2023/06/08 04:01:10;;;;;;;6.20;5.60;;;;;;;16.65;nan;99218.25;4990567;28;20225;-79
2023/06/08 04:03:36;;;;;;;8.30;6.50;;;;;;;16.67;nan;99218.97;5007457;28;20210;-83
2023/06/08 04:06:04;;;;;;;7.60;6.33;;;;;;;16.69;nan;99216.97;5009792;28;20468;-80
2023/06/08 04:08:31;;;;;;;7.03;6.33;;;;;;;16.70;nan;99216.84;5006686;28;20545;-81
2023/06/08 04:10:58;;;;;;;7.65;6.95;;;;;;;16.66;nan;99219.91;5003221;28;20478;-78
2023/06/08 04:13:25;;;;;;;5.60;5.10;;;;;;;16.60;nan;99208.91;5008557;28;20298;-79
2023/06/08 04:15:50;;;;;;;6.63;6.03;;;;;;;16.60;nan;99211.56;5008563;28;20210;-84
2023/06/08 04:18:16;;;;;;;7.07;6.40;;;;;;;16.64;nan;99212.13;5004904;28;20228;-80
2023/06/08 04:20:43;;;;;;;8.57;7.80;;;;;;;16.68;nan;99212.66;5006622;28;20239;-78
2023/06/08 04:23:11;;;;;;;7.38;6.68;;;;;;;16.70;nan;99211.53;5005597;28;20459;-81
2023/06/08 04:25:37;;;;;;;7.95;6.70;;;;;;;16.71;nan;99220.31;5005173;28;20217;-82
2023/06/08 04:28:03;;;;;;;8.10;7.40;;;;;;;16.69;nan;99219.63;4984413;28;20214;-82
2023/06/08 04:30:29;;;;;;;7.60;6.05;;;;;;;16.72;nan;99220.19;5001699;28;20734;-81
2023/06/08 04:32:55;;;;;;;7.53;6.80;;;;;;;16.78;nan;99219.63;5007318;28;20204;-78
2023/06/08 04:35:21;;;;;;;7.05;6.28;;;;;;;16.85;nan;99224.34;4988711;28;20192;-79
2023/06/08 04:37:47;;;;;;;7.67;6.63;;;;;;;16.82;nan;99222.81;5003622;28;20223;-80
2023/06/08 04:40:13;;;;;;;8.60;7.27;;;;;;;16.76;nan;99226.84;5007751;28;20223;-80
2023/06/08 04:42:41;;;;;;;8.00;7.20;;;;;;;16.71;nan;99225.63;4988600;28;21065;-81
2023/06/08 04:45:08;;;;;;;7.47;6.78;;;;;;;16.70;nan;99226.63;5001029;28;20461;-79
2023/06/08 04:47:35;;;;;;;8.93;7.78;;;;;;;16.78;nan;99232.88;5004905;28;20230;-81
2023/06/08 04:50:02;;;;;;;8.05;7.32;;;;;;;17.06;nan;99224.09;4998707;28;20738;-78
2023/06/08 04:52:28;;;;;;;7.57;6.88;;;;;;;17.38;nan;99224.44;5009358;28;20243;-78
2023/06/08 04:54:53;;;;;;;8.03;7.20;;;;;;;17.77;nan;99225.94;5008018;28;20228;-82
2023/06/08 04:57:22;;;;;;;8.23;7.20;;;;;;;18.20;nan;99217.22;4988942;28;20219;-78
2023/06/08 04:59:48;;;;;;;8.10;7.40;;;;;;;18.68;nan;99226.44;4999641;28;20483;-78
2023/06/08 05:02:13;;;;;;;7.30;6.10;;;;;;;19.27;nan;99221.19;5007249;28;20468;-78
2023/06/08 05:04:39;;;;;;;8.10;7.30;;;;;;;19.81;nan;99224.28;5006752;28;20864;-79
2023/06/08 05:07:05;;;;;;;7.20;6.43;;;;;;;20.34;nan;99225.59;5008743;28;20688;-81
2023/06/08 05:09:31;;;;;;;6.20;5.60;;;;;;;20.83;nan;99221.16;4988233;28;20610;-80
2023/06/08 05:11:56;;;;;;;6.50;5.97;;;;;;;21.09;nan;99210.16;5004681;28;20228;-82
2023/06/08 05:14:22;;;;;;;6.63;5.97;;;;;;;21.33;nan;99214.53;5005150;28;20784;-78
2023/06/08 05:16:49;;;;;;;7.70;7.00;;;;;;;21.54;nan;99220.09;5005767;28;20298;-82
2023/06/08 05:19:15;;;;;;;7.40;6.00;;;;;;;21.62;nan;99220.06;5005523;28;20648;-81
2023/06/08 05:21:41;;;;;;;6.50;5.57;;;;;;;21.84;nan;99223.72;5006115;28;20200;-84
2023/06/08 05:24:07;;;;;;;6.90;6.30;;;;;;;22.09;nan;99227.03;5005348;28;20221;-84
2023/06/08 05:26:32;;;;;;;7.37;6.67;;;;;;;22.33;nan;99224.31;5005285;28;20896;-80
2023/06/08 05:28:58;;;;;;;6.00;5.20;;;;;;;22.60;nan;99221.03;4990890;28;20217;-81
2023/06/08 05:31:26;;;;;;;7.87;7.13;;;;;;;22.82;nan;99213.06;5004968;28;20220;-83
2023/06/08 05:33:51;;;;;;;6.47;5.87;;;;;;;23.12;nan;99214.72;5005196;28;20522;-79
2023/06/08 05:36:16;;;;;;;7.50;6.80;;;;;;;23.46;nan;99215.91;5005156;28;20549;-79
2023/06/08 05:38:42;;;;;;;6.90;6.30;;;;;;;23.78;nan;99211.09;5005037;28;20245;-79
2023/06/08 05:41:07;;;;;;;7.23;6.70;;;;;;;24.14;nan;99210.16;5002871;28;20207;-79
2023/06/08 05:43:33;;;;;;;8.73;6.50;;;;;;;24.40;nan;99210.34;5003437;28;20467;-79
2023/06/08 05:45:58;;;;;;;7.27;6.57;;;;;;;24.68;nan;99213.03;5002726;28;20632;-78
2023/06/08 05:48:23;;;;;;;7.33;6.57;;;;;;;24.90;nan;99208.38;5002940;28;20250;-80
2023/06/08 05:50:49;;;;;;;7.07;6.30;;;;;;;25.02;nan;99208.63;5008810;28;20413;-79
2023/06/08 05:53:14;;;;;;;7.00;6.43;;;;;;;25.10;nan;99207.63;5007502;28;20210;-80
2023/06/08 05:55:41;;;;;;;7.17;6.47;;;;;;;25.14;nan;99216.91;5006812;28;20206;-81
2023/06/08 05:58:10;;;;;;;6.93;6.20;;;;;;;25.29;nan;99212.25;5007289;28;20215;-83
2023/06/08 06:00:36;;;;;;;6.80;6.10;;;;;;;25.65;nan;99212.94;5006813;28;20851;-79
2023/06/08 06:03:01;;;;;;;7.60;6.70;;;;;;;25.84;nan;99212.16;5006606;28;21015;-79
2023/06/08 06:05:27;;;;;;;8.18;7.47;;;;;;;26.21;nan;99213.41;5008632;28;20442;-80
2023/06/08 06:07:52;;;;;;;6.93;6.23;;;;;;;26.37;nan;99205.94;5004942;28;20244;-83
2023/06/08 06:10:18;;;;;;;7.47;6.83;;;;;;;26.61;nan;99207.97;4999706;28;20776;-84
2023/06/08 06:12:43;;;;;;;7.50;6.80;;;;;;;26.86;nan;99208.09;5001385;28;20396;-79
2023/06/08 06:15:09;;;;;;;8.30;7.00;;;;;;;26.98;nan;99202.88;4998160;28;20272;-81
2023/06/08 06:17:36;;;;;;;9.87;6.40;;;;;;;27.01;nan;99202.44;5003663;28;20726;-79
2023/06/08 06:20:01;;;;;;;6.90;6.30;;;;;;;27.13;nan;99199.91;5001353;28;20947;-79
2023/06/08 06:22:26;;;;;;;6.70;6.10;;;;;;;27.28;nan;99197.78;5002461;28;20236;-83
2023/06/08 06:24:52;;;;;;;7.27;6.60;;;;;;;27.27;nan;99198.00;5000773;28;20287;-79
2023/06/08 06:27:19;;;;;;;7.07;6.37;;;;;;;27.31;nan;99197.34;4998574;28;20236;-79
2023/06/08 06:29:44;;;;;;;7.13;6.53;;;;;;;27.31;nan;99201.91;4997028;28;20205;-82
2023/06/08 06:32:11;;;;;;;6.50;6.00;;;;;;;27.39;nan;99203.53;5000051;28;20545;-83
2023/06/08 06:34:37;;;;;;;6.67;5.97;;;;;;;27.59;nan;99207.75;4979760;28;20533;-82
2023/06/08 06:37:03;;;;;;;6.57;5.97;;;;;;;27.97;nan;99206.88;4998822;28;20841;-82
2023/06/08 06:39:29;;;;;;;6.50;6.00;;;;;;;28.36;nan;99204.03;5000818;28;20635;-81
2023/06/08 06:41:54;;;;;;;6.80;6.20;;;;;;;28.70;nan;99209.94;5000081;28;20209;-78
2023/06/08 06:44:22;;;;;;;7.37;6.67;;;;;;;29.06;nan;99203.72;4994567;28;20454;-84
2023/06/08 06:46:48;;;;;;;7.00;6.40;;;;;;;29.07;nan;99200.78;5000861;28;20459;-78
2023/06/08 06:49:13;;;;;;;6.40;5.90;;;;;;;28.58;nan;99208.00;5002289;28;20691;-79
2023/06/08 06:51:40;;;;;;;7.00;6.37;;;;;;;27.95;nan;99213.53;5002212;28;20310;-78
2023/06/08 06:54:06;;;;;;;7.20;6.50;;;;;;;27.44;nan;99218.03;5002596;28;20217;-78
2023/06/08 06:56:31;;;;;;;8.80;7.27;;;;;;;27.41;nan;99221.16;4999522;28;20474;-79
2023/06/08 06:58:57;;;;;;;6.50;6.00;;;;;;;27.69;nan;99214.53;5000094;28;20629;-78
2023/06/08 07:01:23;;;;;;;6.97;6.33;;;;;;;28.06;nan;99214.69;4995600;28;20226;-77
2023/06/08 07:03:49;;;;;;;7.43;6.70;;;;;;;28.45;nan;99216.22;4997931;28;20205;-82
2023/06/08 07:06:15;;;;;;;7.10;6.50;;;;;;;28.86;nan;99217.44;4997818;28;20987;-83
2023/06/08 07:08:41;;;;;;;7.43;6.80;;;;;;;29.18;nan;99206.47;4996113;28;20733;-82
2023/06/08 07:11:07;;;;;;;7.30;6.60;;;;;;;29.52;nan;99215.78;4997699;28;20242;-82
2023/06/08 07:13:33;;;;;;;8.03;6.57;;;;;;;29.81;nan;99207.88;4997904;28;20969;-79
2023/06/08 07:15:58;;;;;;;6.20;5.60;;;;;;;29.93;nan;99208.72;4995683;28;20224;-82
2023/06/08 07:18:24;;;;;;;7.47;6.40;;;;;;;30.06;nan;99203.09;5012465;22;20327;-78
2023/06/08 07:20:50;;;;;;;7.43;6.63;;;;;;;29.94;nan;99207.66;4993233;28;20618;-78
2023/06/08 07:23:15;;;;;;;8.10;7.40;;;;;;;29.69;nan;99207.84;5004349;28;20193;-78
2023/06/08 07:25:41;;;;;;;6.93;6.30;;;;;;;29.51;nan;99206.00;5015480;28;20485;-78
2023/06/08 07:28:08;;;;;;;7.27;6.57;;;;;;;29.58;nan;99205.91;5014429;28;20226;-79
2023/06/08 07:30:33;;;;;;;7.13;6.53;;;;;;;29.66;nan;99203.72;5010910;28;20780;-78
2023/06/08 07:32:59;;;;;;;6.63;6.17;;;;;;;29.80;nan;99196.22;5014529;28;20467;-79
2023/06/08 07:35:25;;;;;;;5.87;5.47;;;;;;;30.02;nan;99196.47;5013625;28;20255;-78
2023/06/08 07:37:51;;;;;;;8.27;7.50;;;;;;;30.26;nan;99201.94;5014192;28;20467;-78
2023/06/08 07:40:18;;;;;;;6.93;6.30;;;;;;;30.40;nan;99203.34;5011777;28;20279;-78
2023/06/08 07:42:44;;;;;;;7.53;6.13;;;;;;;30.58;nan;99200.50;5014921;28;20501;-78
2023/06/08 07:45:11;;;;;;;8.10;6.47;;;;;;;30.59;nan;99196.69;5014476;28;20459;-78
2023/06/08 07:47:38;;;;;;;12.07;7.27;;;;;;;30.49;nan;99199.22;5013385;28;20213;-78
2023/06/08 07:50:05;;;;;;;7.23;6.57;;;;;;;30.58;nan;99195.06;5013181;28;20672;-78
2023/06/08 07:52:30;;;;;;;8.73;7.03;;;;;;;30.64;nan;99199.53;5014567;28;20479;-78
2023/06/08 07:54:55;;;;;;;7.43;6.83;;;;;;;30.62;nan;99193.53;5017977;28;20470;-78
2023/06/08 07:57:21;;;;;;;7.37;6.77;;;;;;;30.54;nan;99191.19;5019907;28;20211;-78
2023/06/08 07:59:46;;;;;;;8.60;6.90;;;;;;;30.64;nan;99183.25;5017617;28;20802;-78
2023/06/08 08:02:11;;;;;;;6.97;6.43;;;;;;;30.75;nan;99188.91;5015395;28;20234;-80
2023/06/08 08:04:37;;;;;;;8.43;7.73;;;;;;;30.78;nan;99183.00;4997982;28;21216;-79
2023/06/08 08:07:04;;;;;;;9.97;6.87;;;;;;;30.71;nan;99183.16;4995777;28;20418;-79
2023/06/08 08:09:29;;;;;;;7.50;6.80;;;;;;;30.75;nan;99178.88;5016650;28;21050;-80
2023/06/08 08:11:54;;;;;;;7.67;7.07;;;;;;;30.67;nan;99178.44;5017894;28;20216;-80
2023/06/08 08:14:20;;;;;;;6.83;6.20;;;;;;;30.57;nan;99185.28;5016319;28;20274;-80
2023/06/08 08:16:45;;;;;;;7.80;7.20;;;;;;;30.57;nan;99181.75;4994783;28;20269;-79
2023/06/08 08:19:11;;;;;;;9.30;7.10;;;;;;;30.38;nan;99181.91;5017242;28;20368;-79
2023/06/08 08:21:36;;;;;;;10.30;7.23;;;;;;;30.19;nan;99180.34;5017564;28;20208;-80
2023/06/08 08:24:01;;;;;;;7.30;6.70;;;;;;;30.06;nan;99176.00;5016219;28;20250;-80
2023/06/08 08:26:28;;;;;;;6.60;6.07;;;;;;;29.92;nan;99174.56;5016373;28;20249;-80
2023/06/08 08:28:55;;;;;;;7.70;7.00;;;;;;;29.84;nan;99181.16;5013943;28;20478;-80
2023/06/08 08:31:21;;;;;;;7.33;6.63;;;;;;;29.73;nan;99174.69;5016189;28;20493;-79
2023/06/08 08:33:46;;;;;;;7.70;6.97;;;;;;;29.66;nan;99173.94;5017587;28;20581;-81
2023/06/08 08:36:12;;;;;;;7.93;6.93;;;;;;;29.49;nan;99167.53;5016238;28;20287;-80
2023/06/08 08:38:39;;;;;;;7.20;6.50;;;;;;;29.52;nan;99164.38;5018460;28;20591;-79
2023/06/08 08:41:08;;;;;;;6.60;5.90;;;;;;;29.76;nan;99166.09;5015580;28;20204;-81
2023/06/08 08:43:46;;;;;;;6.03;5.63;;;;;;;29.95;nan;99164.09;5016288;28;20501;-81
2023/06/08 08:46:12;;;;;;;5.53;5.07;;;;;;;30.16;nan;99165.41;5017244;28;20457;-81
2023/06/08 08:48:44;;;;;;;6.70;5.60;;;;;;;30.39;nan;99166.47;5012323;28;20947;-81
2023/06/08 08:51:20;;;;;;;6.03;5.53;;;;;;;30.35;nan;99163.41;5011757;28;20619;-81
2023/06/08 08:53:50;;;;;;;5.70;5.20;;;;;;;30.38;nan;99159.38;5011836;28;20552;-81
2023/06/08 08:56:20;;;;;;;6.20;5.70;;;;;;;30.59;nan;99155.22;5011381;28;20466;-79
2023/06/08 08:58:47;;;;;;;5.80;5.20;;;;;;;30.70;nan;99159.78;5011151;28;20528;-79
2023/06/08 09:01:13;;;;;;;5.53;5.13;;;;;;;30.86;nan;99152.81;5010318;28;20474;-78
2023/06/08 09:03:39;;;;;;;7.00;6.50;;;;;;;30.85;nan;99151.19;5012388;28;20486;-79
2023/06/08 09:06:06;;;;;;;6.30;5.70;;;;;;;30.90;nan;99145.88;5010667;28;20520;-79
2023/06/08 09:08:31;;;;;;;6.30;5.80;;;;;;;30.84;nan;99147.66;5011860;28;20203;-79
2023/06/08 09:11:05;;;;;;;7.37;6.77;;;;;;;30.62;nan;99146.59;5013134;28;21020;-78
2023/06/08 09:13:31;;;;;;;5.50;5.10;;;;;;;30.27;nan;99152.09;5011945;28;20404;-78
2023/06/08 09:16:08;;;;;;;6.93;6.00;;;;;;;29.89;nan;99156.06;5011798;28;20462;-78
2023/06/08 09:18:34;;;;;;;7.00;6.40;;;;;;;29.64;nan;99145.47;5010480;28;20531;-77
2023/06/08 09:21:21;;;;;;;7.63;6.93;;;;;;;29.45;nan;99142.81;5010785;28;20465;-78
2023/06/08 09:24:05;;;;;;;6.23;5.73;;;;;;;29.46;nan;99143.63;5011572;28;20471;-79
2023/06/08 09:26:32;;;;;;;9.47;6.27;;;;;;;29.62;nan;99142.13;5013960;28;20466;-79
2023/06/08 09:29:03;;;;;;;6.60;6.00;;;;;;;29.76;nan;99143.59;5015135;28;20478;-79
2023/06/08 09:31:31;;;;;;;6.57;6.07;;;;;;;29.98;nan;99147.38;5014499;28;21240;-79
2023/06/08 09:34:06;;;;;;;6.93;5.93;;;;;;;30.20;nan;99134.06;4993364;28;20464;-80
2023/06/08 09:36:36;;;;;;;6.27;5.67;;;;;;;30.37;nan;99133.34;5015041;28;20521;-81
2023/06/08 09:39:03;;;;;;;7.63;6.93;;;;;;;30.53;nan;99134.50;5016311;28;20493;-79
2023/06/08 09:41:29;;;;;;;6.60;6.00;;;;;;;30.58;nan;99135.44;5018763;28;22107;-80
2023/06/08 09:43:55;;;;;;;6.40;5.90;;;;;;;30.52;nan;99130.97;5016186;28;20549;-80
2023/06/08 09:46:41;;;;;;;6.23;5.67;;;;;;;30.64;nan;99128.22;5018846;28;20219;-79
2023/06/08 09:49:07;;;;;;;6.67;5.40;;;;;;;30.75;nan;99126.53;5015241;28;20220;-79
2023/06/08 09:51:37;;;;;;;6.67;5.33;;;;;;;30.82;nan;99125.38;5016755;28;20490;-80
2023/06/08 09:54:04;;;;;;;5.97;5.47;;;;;;;30.82;nan;99129.97;5016645;28;20458;-81
2023/06/08 09:56:30;;;;;;;5.67;5.10;;;;;;;30.83;nan;99118.06;5017259;28;20446;-81
2023/06/08 09:58:57;;;;;;;6.83;5.97;;;;;;;30.95;nan;99113.41;5016625;28;20526;-81
2023/06/08 10:01:35;;;;;;;8.07;5.60;;;;;;;31.07;nan;99111.47;5015932;28;20236;-80
2023/06/08 10:04:20;;;;;;;7.17;5.00;;;;;;;31.04;nan;99111.94;5014724;28;20709;-82
2023/06/08 10:06:49;;;;;;;8.83;8.07;;;;;;;31.16;nan;99108.34;5017459;28;21505;-81
2023/06/08 10:09:19;;;;;;;5.77;5.30;;;;;;;31.24;nan;99100.63;5016723;28;20810;-82
2023/06/08 10:11:45;;;;;;;6.63;5.50;;;;;;;31.32;nan;99102.13;5017824;28;20506;-79
2023/06/08 10:14:12;;;;;;;5.53;5.10;;;;;;;31.16;nan;99101.03;5011569;28;20501;-81
2023/06/08 10:16:39;;;;;;;6.40;5.90;;;;;;;31.13;nan;99101.50;5017071;28;20262;-81
2023/06/08 10:19:04;;;;;;;6.47;5.87;;;;;;;31.04;nan;99101.09;5011411;28;21037;-79
2023/06/08 10:21:30;;;;;;;5.43;5.03;;;;;;;30.97;nan;99092.28;5015274;28;20542;-80
2023/06/08 10:23:57;;;;;;;5.00;4.60;;;;;;;31.02;nan;99092.38;5012247;28;20533;-81
2023/06/08 10:26:23;;;;;;;6.20;5.60;;;;;;;31.14;nan;99095.03;5014645;28;20258;-80
2023/06/08 10:29:08;;;;;;;5.60;5.20;;;;;;;31.29;nan;99086.31;5009667;28;20794;-80
2023/06/08 10:31:37;;;;;;;6.70;6.20;;;;;;;31.48;nan;99084.22;5011679;28;20512;-79
2023/06/08 10:34:12;;;;;;;5.57;5.17;;;;;;;31.71;nan;99081.34;5010053;28;20565;-78
2023/06/08 10:36:42;;;;;;;6.37;5.87;;;;;;;31.83;nan;99073.09;5013172;28;20466;-78
2023/06/08 10:39:12;;;;;;;5.87;5.30;;;;;;;31.73;nan;99072.94;5012206;28;20701;-78
2023/06/08 10:41:55;;;;;;;6.03;5.63;;;;;;;31.60;nan;99068.69;5010604;28;20471;-77
2023/06/08 10:44:31;;;;;;;5.40;4.90;;;;;;;31.59;nan;99061.59;5010618;28;21523;-78
2023/06/08 10:47:04;;;;;;;5.30;4.80;;;;;;;31.68;nan;99062.03;5010884;28;20465;-77
2023/06/08 10:49:32;;;;;;;6.07;5.57;;;;;;;31.78;nan;99055.91;5012873;28;20497;-79
2023/06/08 10:52:02;;;;;;;5.87;5.37;;;;;;;31.94;nan;99055.88;4996936;28;20491;-79
2023/06/08 10:54:28;;;;;;;5.67;5.20;;;;;;;32.11;nan;99050.44;5014374;28;20457;-79
2023/06/08 10:56:56;;;;;;;5.13;4.73;;;;;;;31.86;nan;99047.31;5012064;28;20847;-79
2023/06/08 10:59:34;;;;;;;5.40;4.83;;;;;;;31.75;nan;99051.78;5013786;28;20470;-78
2023/06/08 11:02:06;;;;;;;5.80;5.30;;;;;;;31.74;nan;99045.53;5012849;28;20958;-79
2023/06/08 11:04:36;;;;;;;5.77;5.27;;;;;;;31.66;nan;99047.88;5013231;28;21056;-78
2023/06/08 11:07:06;;;;;;;5.57;5.17;;;;;;;31.49;nan;99043.28;4978697;28;20496;-80
2023/06/08 11:09:36;;;;;;;6.80;5.60;;;;;;;31.34;nan;99044.91;5014031;28;20466;-77
2023/06/08 11:12:03;;;;;;;6.47;5.97;;;;;;;31.36;nan;99046.28;5012379;28;20618;-79
2023/06/08 11:14:29;;;;;;;5.23;4.73;;;;;;;31.38;nan;99036.06;5015537;28;21034;-79
2023/06/08 11:16:56;;;;;;;5.40;5.00;;;;;;;31.42;nan;99026.31;5014914;28;20547;-78
2023/06/08 11:19:23;;;;;;;5.90;5.50;;;;;;;31.40;nan;99028.47;5015073;28;20704;-79
2023/06/08 11:21:53;;;;;;;6.10;5.50;;;;;;;31.40;nan;99031.16;5013530;28;20520;-77
2023/06/08 11:24:20;;;;;;;6.70;6.10;;;;;;;31.42;nan;99026.31;5009629;28;22282;-78
2023/06/08 11:26:46;;;;;;;6.03;5.50;;;;;;;31.39;nan;99026.81;5012529;28;20497;-79
2023/06/08 11:29:13;;;;;;;5.93;5.43;;;;;;;31.43;nan;99019.00;5011871;28;21352;-77
2023/06/08 11:31:41;;;;;;;6.13;5.40;;;;;;;31.49;nan;99026.19;5011434;28;20574;-78
2023/06/08 11:34:08;;;;;;;5.77;5.27;;;;;;;31.57;nan;99014.91;5012202;28;20470;-80
2023/06/08 11:36:36;;;;;;;5.80;5.30;;;;;;;31.61;nan;99016.03;5012870;28;20480;-78
2023/06/08 11:39:03;;;;;;;5.90;5.40;;;;;;;31.62;nan;99016.84;5011190;28;20528;-79
2023/06/08 11:41:29;;;;;;;6.00;5.50;;;;;;;31.58;nan;99010.28;4993573;28;20501;-77
2023/06/08 11:43:56;;;;;;;6.47;5.97;;;;;;;31.53;nan;99011.03;5008790;28;20457;-77
2023/06/08 11:46:21;;;;;;;7.50;6.10;;;;;;;31.60;nan;99000.81;5010141;28;20495;-78
2023/06/08 11:48:47;;;;;;;6.03;5.63;;;;;;;31.66;nan;99007.94;5008979;28;20510;-79
2023/06/08 11:51:17;;;;;;;6.43;5.80;;;;;;;31.60;nan;99013.56;5010229;28;20632;-78
2023/06/08 11:53:45;;;;;;;5.90;5.40;;;;;;;31.50;nan;98995.22;4991020;28;20233;-77
2023/06/08 11:56:10;;;;;;;6.30;5.80;;;;;;;31.46;nan;99000.34;5009684;28;20455;-78
2023/06/08 11:58:39;;;;;;;7.10;6.40;;;;;;;31.51;nan;99003.13;5009493;28;20986;-79